sensor_id;sensor_type;location;lat;lon;timestamp;temperature;humidity
49148;DHT22;41980;45.550;12.070;2022-10-13T00:05:14;15.00;69.50
49148;DHT22;41980;45.550;12.070;2022-10-13T00:11:30;15.00;69.50
49148;DHT22;41980;45.550;12.070;2022-10-13T00:17:33;15.00;70.20
49148;DHT22;41980;45.550;12.070;2022-10-13T00:23:37;14.90;69.50
49148;DHT22;41980;45.550;12.070;2022-10-13T00:29:40;14.80;69.70
49148;DHT22;41980;45.550;12.070;2022-10-13T00:35:43;14.80;69.70
49148;DHT22;41980;45.550;12.070;2022-10-13T00:41:46;14.70;69.60
49148;DHT22;41980;45.550;12.070;2022-10-13T00:47:52;14.70;70.60
49148;DHT22;41980;45.550;12.070;2022-10-13T00:53:57;14.70;69.80
49148;DHT22;41980;45.550;12.070;2022-10-13T01:00:02;14.60;69.70
49148;DHT22;41980;45.550;12.070;2022-10-13T01:06:06;14.60;69.80
49148;DHT22;41980;45.550;12.070;2022-10-13T01:18:20;14.50;69.70
49148;DHT22;41980;45.550;12.070;2022-10-13T01:24:29;14.50;70.30
49148;DHT22;41980;45.550;12.070;2022-10-13T01:30:37;14.50;69.90
49148;DHT22;41980;45.550;12.070;2022-10-13T01:36:44;14.50;70.00
49148;DHT22;41980;45.550;12.070;2022-10-13T01:48:58;14.50;69.90
49148;DHT22;41980;45.550;12.070;2022-10-13T01:55:07;14.50;69.80
49148;DHT22;41980;45.550;12.070;2022-10-13T02:07:23;14.30;70.50
49148;DHT22;41980;45.550;12.070;2022-10-13T02:13:28;14.20;70.60
49148;DHT22;41980;45.550;12.070;2022-10-13T02:19:34;14.20;70.80
49148;DHT22;41980;45.550;12.070;2022-10-13T02:25:37;14.10;71.20
49148;DHT22;41980;45.550;12.070;2022-10-13T02:31:41;14.00;71.50
49148;DHT22;41980;45.550;12.070;2022-10-13T02:37:43;13.90;71.70
49148;DHT22;41980;45.550;12.070;2022-10-13T02:43:45;13.90;71.80
49148;DHT22;41980;45.550;12.070;2022-10-13T02:49:48;13.80;71.80
49148;DHT22;41980;45.550;12.070;2022-10-13T02:55:50;13.70;71.80
49148;DHT22;41980;45.550;12.070;2022-10-13T03:01:51;13.70;71.90
49148;DHT22;41980;45.550;12.070;2022-10-13T03:07:53;13.70;71.90
49148;DHT22;41980;45.550;12.070;2022-10-13T03:13:55;13.70;71.80
49148;DHT22;41980;45.550;12.070;2022-10-13T03:19:57;13.70;72.00
49148;DHT22;41980;45.550;12.070;2022-10-13T03:26:00;13.70;71.90
49148;DHT22;41980;45.550;12.070;2022-10-13T03:32:03;13.70;71.70
49148;DHT22;41980;45.550;12.070;2022-10-13T03:38:05;13.70;71.70
49148;DHT22;41980;45.550;12.070;2022-10-13T03:44:11;13.70;71.80
49148;DHT22;41980;45.550;12.070;2022-10-13T03:50:14;13.60;71.90
49148;DHT22;41980;45.550;12.070;2022-10-13T03:56:19;13.60;72.00
49148;DHT22;41980;45.550;12.070;2022-10-13T04:02:25;13.50;72.10
49148;DHT22;41980;45.550;12.070;2022-10-13T04:08:29;13.50;72.40
49148;DHT22;41980;45.550;12.070;2022-10-13T04:14:33;13.50;72.60
49148;DHT22;41980;45.550;12.070;2022-10-13T04:20:43;13.40;72.80
49148;DHT22;41980;45.550;12.070;2022-10-13T04:26:45;13.50;72.70
49148;DHT22;41980;45.550;12.070;2022-10-13T04:32:47;13.40;72.70
49148;DHT22;41980;45.550;12.070;2022-10-13T04:38:51;13.40;72.80
49148;DHT22;41980;45.550;12.070;2022-10-13T04:44:54;13.30;72.90
49148;DHT22;41980;45.550;12.070;2022-10-13T04:51:01;13.30;73.10
49148;DHT22;41980;45.550;12.070;2022-10-13T04:57:03;13.30;73.20
49148;DHT22;41980;45.550;12.070;2022-10-13T05:03:06;13.20;73.30
49148;DHT22;41980;45.550;12.070;2022-10-13T05:09:13;13.30;73.30
49148;DHT22;41980;45.550;12.070;2022-10-13T05:15:17;13.20;73.30
49148;DHT22;41980;45.550;12.070;2022-10-13T05:21:24;13.20;73.20
49148;DHT22;41980;45.550;12.070;2022-10-13T05:27:27;13.20;73.20
49148;DHT22;41980;45.550;12.070;2022-10-13T05:33:29;13.20;73.20
49148;DHT22;41980;45.550;12.070;2022-10-13T05:39:31;13.20;73.30
49148;DHT22;41980;45.550;12.070;2022-10-13T05:45:34;13.20;73.60
49148;DHT22;41980;45.550;12.070;2022-10-13T05:51:40;13.30;73.60
49148;DHT22;41980;45.550;12.070;2022-10-13T05:57:47;13.30;73.50
49148;DHT22;41980;45.550;12.070;2022-10-13T06:03:51;13.40;73.60
49148;DHT22;41980;45.550;12.070;2022-10-13T06:09:56;13.50;73.30
49148;DHT22;41980;45.550;12.070;2022-10-13T06:15:59;13.60;73.00
49148;DHT22;41980;45.550;12.070;2022-10-13T06:22:03;13.90;72.90
49148;DHT22;41980;45.550;12.070;2022-10-13T06:28:05;14.00;72.60
49148;DHT22;41980;45.550;12.070;2022-10-13T06:34:07;14.20;72.60
49148;DHT22;41980;45.550;12.070;2022-10-13T06:40:14;14.40;72.30
49148;DHT22;41980;45.550;12.070;2022-10-13T06:46:16;14.70;72.50
49148;DHT22;41980;45.550;12.070;2022-10-13T06:52:19;17.00;72.10
49148;DHT22;41980;45.550;12.070;2022-10-13T06:58:21;19.50;69.00
49148;DHT22;41980;45.550;12.070;2022-10-13T07:04:23;21.40;66.80
49148;DHT22;41980;45.550;12.070;2022-10-13T07:10:28;22.60;65.10
49148;DHT22;41980;45.550;12.070;2022-10-13T07:16:39;21.80;64.60
49148;DHT22;41980;45.550;12.070;2022-10-13T07:22:42;20.00;66.70
49148;DHT22;41980;45.550;12.070;2022-10-13T07:28:46;18.80;67.40
49148;DHT22;41980;45.550;12.070;2022-10-13T07:34:53;18.00;68.90
49148;DHT22;41980;45.550;12.070;2022-10-13T07:41:00;17.80;69.10
49148;DHT22;41980;45.550;12.070;2022-10-13T07:47:03;17.60;69.00
49148;DHT22;41980;45.550;12.070;2022-10-13T07:53:07;17.60;68.80
49148;DHT22;41980;45.550;12.070;2022-10-13T07:59:11;17.60;68.60
49148;DHT22;41980;45.550;12.070;2022-10-13T08:05:16;17.70;68.50
49148;DHT22;41980;45.550;12.070;2022-10-13T08:11:19;17.80;68.10
49148;DHT22;41980;45.550;12.070;2022-10-13T08:17:21;17.90;68.00
49148;DHT22;41980;45.550;12.070;2022-10-13T08:23:29;18.00;67.70
49148;DHT22;41980;45.550;12.070;2022-10-13T08:29:31;18.10;67.50
49148;DHT22;41980;45.550;12.070;2022-10-13T08:35:34;18.20;67.30
49148;DHT22;41980;45.550;12.070;2022-10-13T08:41:41;18.40;66.90
49148;DHT22;41980;45.550;12.070;2022-10-13T08:47:52;18.50;66.60
49148;DHT22;41980;45.550;12.070;2022-10-13T08:53:55;18.60;65.50
49148;DHT22;41980;45.550;12.070;2022-10-13T09:00:10;19.00;67.40
49148;DHT22;41980;45.550;12.070;2022-10-13T09:06:37;20.50;66.90
49148;DHT22;41980;45.550;12.070;2022-10-13T09:12:42;21.50;65.90
49148;DHT22;41980;45.550;12.070;2022-10-13T09:18:46;22.00;64.20
49148;DHT22;41980;45.550;12.070;2022-10-13T09:37:25;21.40;63.80
49148;DHT22;41980;45.550;12.070;2022-10-13T09:44:11;21.10;63.60
49148;DHT22;41980;45.550;12.070;2022-10-13T09:50:20;20.90;62.80
49148;DHT22;41980;45.550;12.070;2022-10-13T09:56:38;20.80;62.90
49148;DHT22;41980;45.550;12.070;2022-10-13T10:08:59;23.20;59.50
49148;DHT22;41980;45.550;12.070;2022-10-13T10:15:19;24.20;58.20
49148;DHT22;41980;45.550;12.070;2022-10-13T10:27:41;24.70;55.30
49148;DHT22;41980;45.550;12.070;2022-10-13T10:46:09;23.10;56.20
49148;DHT22;41980;45.550;12.070;2022-10-13T10:52:23;22.70;57.00
49148;DHT22;41980;45.550;12.070;2022-10-13T10:58:41;22.50;56.50
49148;DHT22;41980;45.550;12.070;2022-10-13T11:04:52;22.30;56.50
49148;DHT22;41980;45.550;12.070;2022-10-13T11:23:29;21.70;57.00
49148;DHT22;41980;45.550;12.070;2022-10-13T11:35:43;21.50;56.70
49148;DHT22;41980;45.550;12.070;2022-10-13T11:54:14;21.50;56.90
49148;DHT22;41980;45.550;12.070;2022-10-13T12:00:21;21.60;56.70
49148;DHT22;41980;45.550;12.070;2022-10-13T12:06:26;21.60;55.60
49148;DHT22;41980;45.550;12.070;2022-10-13T12:12:34;21.60;56.80
49148;DHT22;41980;45.550;12.070;2022-10-13T12:18:39;21.60;57.30
49148;DHT22;41980;45.550;12.070;2022-10-13T12:24:41;21.50;57.20
49148;DHT22;41980;45.550;12.070;2022-10-13T12:30:52;21.50;57.30
49148;DHT22;41980;45.550;12.070;2022-10-13T12:36:57;21.50;57.30
49148;DHT22;41980;45.550;12.070;2022-10-13T12:43:03;21.50;56.80
49148;DHT22;41980;45.550;12.070;2022-10-13T12:55:17;21.50;56.10
49148;DHT22;41980;45.550;12.070;2022-10-13T13:01:27;21.40;56.30
49148;DHT22;41980;45.550;12.070;2022-10-13T13:07:32;21.50;55.80
49148;DHT22;41980;45.550;12.070;2022-10-13T13:13:34;21.70;56.60
49148;DHT22;41980;45.550;12.070;2022-10-13T13:19:37;21.80;56.30
49148;DHT22;41980;45.550;12.070;2022-10-13T13:25:39;21.80;56.60
49148;DHT22;41980;45.550;12.070;2022-10-13T13:31:43;21.80;56.70
49148;DHT22;41980;45.550;12.070;2022-10-13T13:37:47;21.80;55.70
49148;DHT22;41980;45.550;12.070;2022-10-13T13:43:51;21.90;55.40
49148;DHT22;41980;45.550;12.070;2022-10-13T13:49:54;21.90;55.80
49148;DHT22;41980;45.550;12.070;2022-10-13T13:55:57;21.80;55.90
49148;DHT22;41980;45.550;12.070;2022-10-13T14:02:11;21.80;56.20
49148;DHT22;41980;45.550;12.070;2022-10-13T14:08:13;21.80;56.50
49148;DHT22;41980;45.550;12.070;2022-10-13T14:14:15;21.70;56.40
49148;DHT22;41980;45.550;12.070;2022-10-13T14:20:17;21.60;56.70
49148;DHT22;41980;45.550;12.070;2022-10-13T14:26:19;21.50;56.80
49148;DHT22;41980;45.550;12.070;2022-10-13T14:32:22;21.50;57.10
49148;DHT22;41980;45.550;12.070;2022-10-13T14:38:24;21.50;57.20
49148;DHT22;41980;45.550;12.070;2022-10-13T14:44:26;21.50;57.20
49148;DHT22;41980;45.550;12.070;2022-10-13T14:50:28;21.50;57.10
49148;DHT22;41980;45.550;12.070;2022-10-13T14:56:31;21.50;57.30
49148;DHT22;41980;45.550;12.070;2022-10-13T15:02:33;21.40;57.00
49148;DHT22;41980;45.550;12.070;2022-10-13T15:08:35;21.20;57.20
49148;DHT22;41980;45.550;12.070;2022-10-13T15:14:37;21.10;57.70
49148;DHT22;41980;45.550;12.070;2022-10-13T15:20:45;20.90;58.20
49148;DHT22;41980;45.550;12.070;2022-10-13T15:26:50;20.70;58.70
49148;DHT22;41980;45.550;12.070;2022-10-13T15:32:52;20.60;59.10
49148;DHT22;41980;45.550;12.070;2022-10-13T15:38:54;20.50;59.60
49148;DHT22;41980;45.550;12.070;2022-10-13T15:44:56;20.40;59.50
49148;DHT22;41980;45.550;12.070;2022-10-13T15:51:01;20.20;59.70
49148;DHT22;41980;45.550;12.070;2022-10-13T15:57:04;20.10;60.00
49148;DHT22;41980;45.550;12.070;2022-10-13T16:03:06;19.90;60.10
49148;DHT22;41980;45.550;12.070;2022-10-13T16:09:09;19.80;60.40
49148;DHT22;41980;45.550;12.070;2022-10-13T16:15:11;19.60;60.60
49148;DHT22;41980;45.550;12.070;2022-10-13T16:21:19;19.50;60.60
49148;DHT22;41980;45.550;12.070;2022-10-13T16:27:22;19.30;60.90
49148;DHT22;41980;45.550;12.070;2022-10-13T16:33:42;19.10;61.20
49148;DHT22;41980;45.550;12.070;2022-10-13T16:47:14;18.80;61.70
49148;DHT22;41980;45.550;12.070;2022-10-13T16:53:18;18.60;61.90
49148;DHT22;41980;45.550;12.070;2022-10-13T16:59:20;18.50;62.00
49148;DHT22;41980;45.550;12.070;2022-10-13T17:05:22;18.50;62.10
49148;DHT22;41980;45.550;12.070;2022-10-13T17:11:30;18.40;62.40
49148;DHT22;41980;45.550;12.070;2022-10-13T17:17:32;18.30;62.50
49148;DHT22;41980;45.550;12.070;2022-10-13T17:23:42;18.20;62.70
49148;DHT22;41980;45.550;12.070;2022-10-13T17:29:44;18.10;62.80
49148;DHT22;41980;45.550;12.070;2022-10-13T17:35:50;18.10;63.10
49148;DHT22;41980;45.550;12.070;2022-10-13T17:41:53;18.00;63.30
49148;DHT22;41980;45.550;12.070;2022-10-13T17:47:55;18.00;63.70
49148;DHT22;41980;45.550;12.070;2022-10-13T17:54:00;17.90;63.70
49148;DHT22;41980;45.550;12.070;2022-10-13T18:00:04;17.80;64.10
49148;DHT22;41980;45.550;12.070;2022-10-13T18:06:15;17.70;64.30
49148;DHT22;41980;45.550;12.070;2022-10-13T18:12:18;17.70;64.50
49148;DHT22;41980;45.550;12.070;2022-10-13T18:18:20;17.70;64.60
49148;DHT22;41980;45.550;12.070;2022-10-13T18:24:22;17.60;65.20
49148;DHT22;41980;45.550;12.070;2022-10-13T18:30:25;17.50;65.00
49148;DHT22;41980;45.550;12.070;2022-10-13T18:36:29;17.50;65.50
49148;DHT22;41980;45.550;12.070;2022-10-13T18:42:33;17.40;66.10
49148;DHT22;41980;45.550;12.070;2022-10-13T18:48:35;17.30;66.40
49148;DHT22;41980;45.550;12.070;2022-10-13T18:54:37;17.20;66.70
49148;DHT22;41980;45.550;12.070;2022-10-13T19:00:39;17.00;66.90
49148;DHT22;41980;45.550;12.070;2022-10-13T19:06:43;17.00;67.10
49148;DHT22;41980;45.550;12.070;2022-10-13T19:12:45;16.90;67.20
49148;DHT22;41980;45.550;12.070;2022-10-13T19:18:48;16.80;67.20
49148;DHT22;41980;45.550;12.070;2022-10-13T19:24:53;16.80;67.60
49148;DHT22;41980;45.550;12.070;2022-10-13T19:30:56;16.70;67.80
49148;DHT22;41980;45.550;12.070;2022-10-13T19:36:58;16.60;68.10
49148;DHT22;41980;45.550;12.070;2022-10-13T19:43:04;16.50;68.40
49148;DHT22;41980;45.550;12.070;2022-10-13T19:49:07;16.50;68.60
49148;DHT22;41980;45.550;12.070;2022-10-13T19:55:10;16.50;68.70
49148;DHT22;41980;45.550;12.070;2022-10-13T20:01:12;16.50;68.80
49148;DHT22;41980;45.550;12.070;2022-10-13T20:07:14;16.50;69.10
49148;DHT22;41980;45.550;12.070;2022-10-13T20:13:16;16.50;69.20
49148;DHT22;41980;45.550;12.070;2022-10-13T20:19:23;16.40;69.50
49148;DHT22;41980;45.550;12.070;2022-10-13T20:25:25;16.30;69.70
49148;DHT22;41980;45.550;12.070;2022-10-13T20:31:28;16.20;69.80
49148;DHT22;41980;45.550;12.070;2022-10-13T20:37:32;16.20;69.80
49148;DHT22;41980;45.550;12.070;2022-10-13T20:43:34;16.20;69.90
49148;DHT22;41980;45.550;12.070;2022-10-13T20:49:37;16.20;70.10
49148;DHT22;41980;45.550;12.070;2022-10-13T20:55:39;16.20;70.10
49148;DHT22;41980;45.550;12.070;2022-10-13T21:01:41;16.20;70.10
49148;DHT22;41980;45.550;12.070;2022-10-13T21:07:44;16.20;70.50
49148;DHT22;41980;45.550;12.070;2022-10-13T21:13:46;16.20;70.00
49148;DHT22;41980;45.550;12.070;2022-10-13T21:19:48;16.10;70.10
49148;DHT22;41980;45.550;12.070;2022-10-13T21:25:51;16.10;70.10
49148;DHT22;41980;45.550;12.070;2022-10-13T21:32:05;16.10;70.10
49148;DHT22;41980;45.550;12.070;2022-10-13T21:38:34;16.10;70.90
49148;DHT22;41980;45.550;12.070;2022-10-13T21:44:36;16.10;72.00
49148;DHT22;41980;45.550;12.070;2022-10-13T21:50:44;16.00;71.60
49148;DHT22;41980;45.550;12.070;2022-10-13T21:56:46;16.00;70.60
49148;DHT22;41980;45.550;12.070;2022-10-13T22:02:48;16.00;71.10
49148;DHT22;41980;45.550;12.070;2022-10-13T22:08:56;16.00;71.10
49148;DHT22;41980;45.550;12.070;2022-10-13T22:14:59;16.10;72.50
49148;DHT22;41980;45.550;12.070;2022-10-13T22:21:05;16.00;71.40
49148;DHT22;41980;45.550;12.070;2022-10-13T22:27:07;16.10;71.00
49148;DHT22;41980;45.550;12.070;2022-10-13T22:33:09;16.10;70.90
49148;DHT22;41980;45.550;12.070;2022-10-13T22:39:11;16.10;70.90
49148;DHT22;41980;45.550;12.070;2022-10-13T22:45:14;16.00;71.30
49148;DHT22;41980;45.550;12.070;2022-10-13T22:51:18;16.00;71.50
49148;DHT22;41980;45.550;12.070;2022-10-13T22:57:21;15.90;71.70
49148;DHT22;41980;45.550;12.070;2022-10-13T23:03:25;15.80;71.90
49148;DHT22;41980;45.550;12.070;2022-10-13T23:09:28;15.80;71.80
49148;DHT22;41980;45.550;12.070;2022-10-13T23:15:31;15.90;72.20
49148;DHT22;41980;45.550;12.070;2022-10-13T23:21:34;15.90;72.00
49148;DHT22;41980;45.550;12.070;2022-10-13T23:27:36;15.90;71.80
49148;DHT22;41980;45.550;12.070;2022-10-13T23:33:38;15.90;72.00
49148;DHT22;41980;45.550;12.070;2022-10-13T23:39:40;15.80;72.20
49148;DHT22;41980;45.550;12.070;2022-10-13T23:45:43;15.70;74.70
49148;DHT22;41980;45.550;12.070;2022-10-13T23:51:48;15.70;72.90
49148;DHT22;41980;45.550;12.070;2022-10-13T23:57:50;15.60;72.30
